createdAt,value
2019-05-30T00:00:30.014Z,91.60
2019-05-30T00:03:05.343Z,91.90
2019-05-30T00:05:49.687Z,91.60
2019-05-30T00:08:18.417Z,91.70
2019-05-30T00:10:54.275Z,91.70
2019-05-30T00:13:24.224Z,92.00
2019-05-30T00:15:56.571Z,91.80
2019-05-30T00:18:52.428Z,91.80
2019-05-30T00:21:24.051Z,92.00
2019-05-30T00:24:02.030Z,91.50
2019-05-30T00:26:36.727Z,91.50
2019-05-30T00:29:12.462Z,91.70
2019-05-30T00:32:04.367Z,91.60
2019-05-30T00:35:07.466Z,91.50
2019-05-30T00:37:46.124Z,91.80
2019-05-30T00:40:15.349Z,91.80
2019-05-30T00:43:00.253Z,91.70
2019-05-30T00:49:02.463Z,92.70
2019-05-30T00:51:44.090Z,92.10
2019-05-30T00:54:15.013Z,92.00
2019-05-30T00:56:49.734Z,92.20
2019-05-30T00:59:22.851Z,91.80
2019-05-30T01:02:02.796Z,91.50
2019-05-30T01:04:37.562Z,91.70
2019-05-30T01:10:36.290Z,91.80
2019-05-30T01:13:11.062Z,91.80
2019-05-30T01:15:42.508Z,92.10
2019-05-30T01:18:13.499Z,92.00
2019-05-30T01:20:43.466Z,92.30
2019-05-30T01:26:43.676Z,92.40
2019-05-30T01:30:10.655Z,92.70
2019-05-30T01:33:01.795Z,92.80
2019-05-30T01:39:14.253Z,93.90
2019-05-30T01:41:48.759Z,94.70
2019-05-30T01:44:41.584Z,95.00
2019-05-30T01:47:27.170Z,95.30
2019-05-30T01:50:00.326Z,95.50
2019-05-30T01:53:35.137Z,95.90
2019-05-30T01:56:09.225Z,96.30
2019-05-30T01:58:41.074Z,96.30
2019-05-30T02:01:25.216Z,96.50
2019-05-30T02:03:53.903Z,96.00
2019-05-30T02:06:28.296Z,97.20
2019-05-30T02:09:36.325Z,97.80
2019-05-30T02:12:50.104Z,98.20
2019-05-30T02:15:19.139Z,98.70
2019-05-30T02:18:05.730Z,99.70
2019-05-30T02:20:37.543Z,99.90
2019-05-30T02:23:12.071Z,99.90
2019-05-30T02:25:46.401Z,99.90
2019-05-30T02:28:15.116Z,99.90
2019-05-30T02:30:45.066Z,99.90
2019-05-30T02:33:18.032Z,99.90
2019-05-30T02:36:01.317Z,99.90
2019-05-30T02:38:36.856Z,99.90
2019-05-30T02:41:10.079Z,99.90
2019-05-30T02:43:52.709Z,99.90
2019-05-30T02:46:25.065Z,99.90
2019-05-30T02:49:01.608Z,99.90
2019-05-30T02:51:29.805Z,99.90
2019-05-30T02:53:59.473Z,99.90
2019-05-30T02:56:33.524Z,99.90
2019-05-30T02:59:34.037Z,99.90
2019-05-30T03:02:12.388Z,99.90
2019-05-30T03:04:55.296Z,99.90
2019-05-30T03:07:31.679Z,99.90
2019-05-30T03:10:44.964Z,99.90
2019-05-30T03:13:21.017Z,99.90
2019-05-30T03:16:14.788Z,99.90
2019-05-30T03:18:44.562Z,99.90
2019-05-30T03:21:19.299Z,99.90
2019-05-30T03:23:55.005Z,99.90
2019-05-30T03:26:29.892Z,99.90
2019-05-30T03:28:59.914Z,99.90
2019-05-30T03:31:34.626Z,99.90
2019-05-30T03:34:22.877Z,99.90
2019-05-30T03:37:26.782Z,99.90
2019-05-30T03:39:48.060Z,99.90
2019-05-30T03:42:17.882Z,99.90
2019-05-30T03:45:16.436Z,99.90
2019-05-30T03:47:54.030Z,99.90
2019-05-30T03:50:33.337Z,99.90
2019-05-30T03:53:06.874Z,99.90
2019-05-30T03:55:37.637Z,99.90
2019-05-30T03:58:27.494Z,99.90
2019-05-30T04:01:02.745Z,99.90
2019-05-30T04:03:55.302Z,99.90
2019-05-30T04:06:44.144Z,99.90
2019-05-30T04:09:25.476Z,99.90
2019-05-30T04:11:58.355Z,99.90
2019-05-30T04:14:31.330Z,99.90
2019-05-30T04:17:05.762Z,99.90
2019-05-30T04:19:38.862Z,99.90
2019-05-30T04:22:45.289Z,99.90
2019-05-30T04:25:22.306Z,99.90
2019-05-30T04:27:58.291Z,99.90
2019-05-30T04:30:54.155Z,99.90
2019-05-30T04:33:58.386Z,99.90
2019-05-30T04:36:30.525Z,99.90
2019-05-30T04:39:02.354Z,99.90
2019-05-30T04:41:34.239Z,99.90
2019-05-30T04:44:11.648Z,99.90
2019-05-30T04:46:42.100Z,99.90
2019-05-30T04:49:14.466Z,99.90
2019-05-30T04:51:58.470Z,99.90
2019-05-30T04:54:33.061Z,99.90
2019-05-30T04:57:05.027Z,99.90
2019-05-30T04:59:35.180Z,99.90
2019-05-30T05:02:13.168Z,99.90
2019-05-30T05:04:46.453Z,99.90
2019-05-30T05:07:23.382Z,99.90
2019-05-30T05:09:52.251Z,99.90
2019-05-30T05:12:23.263Z,99.90
2019-05-30T05:14:54.990Z,99.90
2019-05-30T05:17:26.706Z,99.90
2019-05-30T05:23:36.180Z,99.90
2019-05-30T05:26:39.897Z,99.90
2019-05-30T05:29:52.582Z,99.90
2019-05-30T05:32:22.565Z,99.90
2019-05-30T05:34:57.103Z,99.90
2019-05-30T05:37:40.641Z,99.90
2019-05-30T05:40:18.028Z,99.90
2019-05-30T05:42:49.237Z,99.90
2019-05-30T05:46:14.148Z,99.90
2019-05-30T05:48:48.765Z,99.90
2019-05-30T05:51:20.802Z,99.90
2019-05-30T05:53:49.681Z,99.90
2019-05-30T05:56:55.517Z,99.90
2019-05-30T06:00:10.140Z,99.90
2019-05-30T06:02:47.228Z,99.90
2019-05-30T06:05:24.396Z,99.90
2019-05-30T06:07:51.779Z,99.90
2019-05-30T06:10:36.617Z,99.90
2019-05-30T06:14:00.282Z,99.90
2019-05-30T06:16:33.536Z,99.90
2019-05-30T06:19:04.830Z,99.90
2019-05-30T06:21:36.143Z,99.90
2019-05-30T06:24:06.933Z,99.90
2019-05-30T06:26:39.253Z,99.90
2019-05-30T06:29:09.831Z,99.90
2019-05-30T06:32:16.826Z,99.90
2019-05-30T06:34:59.503Z,99.90
2019-05-30T06:37:39.808Z,99.90
2019-05-30T06:40:11.799Z,99.90
2019-05-30T06:43:34.054Z,99.90
2019-05-30T06:46:16.094Z,99.90
2019-05-30T06:48:52.474Z,99.90
2019-05-30T06:51:32.513Z,99.90
2019-05-30T06:54:14.694Z,99.90
2019-05-30T06:56:44.907Z,99.90
2019-05-30T06:59:37.815Z,99.90
2019-05-30T07:02:39.107Z,99.90
2019-05-30T07:05:15.482Z,99.90
2019-05-30T07:07:44.899Z,99.90
2019-05-30T07:10:17.546Z,99.90
2019-05-30T07:13:15.487Z,99.90
2019-05-30T07:15:48.853Z,99.40
2019-05-30T07:18:27.420Z,99.50
2019-05-30T07:20:59.721Z,99.30
2019-05-30T07:23:39.237Z,99.00
2019-05-30T07:26:06.753Z,98.60
2019-05-30T07:29:32.121Z,99.00
2019-05-30T07:32:00.772Z,99.30
2019-05-30T07:34:36.358Z,99.60
2019-05-30T07:40:51.817Z,99.40
2019-05-30T07:46:54.275Z,99.70
2019-05-30T07:49:22.831Z,99.60
2019-05-30T07:51:54.441Z,99.00
2019-05-30T07:54:26.845Z,98.80
2019-05-30T07:57:10.622Z,98.50
2019-05-30T07:59:46.063Z,98.60
2019-05-30T08:02:20.870Z,99.10
2019-05-30T08:04:55.399Z,98.50
2019-05-30T08:07:30.672Z,98.20
2019-05-30T08:13:47.110Z,98.20
2019-05-30T08:16:41.549Z,98.10
2019-05-30T08:19:25.330Z,98.00
2019-05-30T08:21:53.972Z,97.80
2019-05-30T08:25:16.261Z,98.00
2019-05-30T08:28:21.783Z,98.40
2019-05-30T08:34:25.637Z,98.40
2019-05-30T08:37:00.086Z,98.60
2019-05-30T08:39:58.957Z,98.70
2019-05-30T08:42:33.319Z,98.80
2019-05-30T08:45:09.931Z,98.30
2019-05-30T08:47:50.655Z,98.50
2019-05-30T08:50:28.133Z,98.40
2019-05-30T08:53:04.952Z,98.70
2019-05-30T08:55:34.510Z,98.50
2019-05-30T08:58:04.454Z,98.10
2019-05-30T09:00:40.208Z,97.90
2019-05-30T09:03:13.186Z,97.90
2019-05-30T09:06:02.673Z,98.40
2019-05-30T09:08:24.370Z,98.30
2019-05-30T09:10:55.107Z,98.70
2019-05-30T09:13:34.527Z,98.60
2019-05-30T09:16:09.019Z,98.40
2019-05-30T09:18:41.598Z,98.00
2019-05-30T09:21:13.856Z,97.30
2019-05-30T09:23:51.145Z,96.40
2019-05-30T09:26:26.051Z,96.00
2019-05-30T09:29:04.732Z,95.80
2019-05-30T09:31:39.965Z,94.40
2019-05-30T09:35:08.952Z,94.30
2019-05-30T09:37:45.833Z,94.40
2019-05-30T09:40:21.360Z,93.60
2019-05-30T09:42:59.670Z,94.00
2019-05-30T09:46:03.873Z,93.70
2019-05-30T09:48:32.497Z,93.10
2019-05-30T09:51:07.167Z,92.90
2019-05-30T09:53:39.486Z,93.50
2019-05-30T09:56:18.935Z,92.80
2019-05-30T09:58:50.377Z,91.90
2019-05-30T10:01:19.554Z,93.10
2019-05-30T10:04:14.096Z,93.40
2019-05-30T10:06:46.326Z,92.50
2019-05-30T10:09:30.831Z,91.10
2019-05-30T10:12:02.081Z,89.20
2019-05-30T10:14:36.777Z,84.90
2019-05-30T10:17:59.603Z,83.80
2019-05-30T10:20:42.044Z,83.80
2019-05-30T10:23:14.078Z,82.30
2019-05-30T10:25:42.680Z,82.30
2019-05-30T10:28:14.238Z,84.10
2019-05-30T10:31:03.718Z,81.40
2019-05-30T10:33:37.600Z,83.70
2019-05-30T10:36:06.393Z,79.80
2019-05-30T10:38:37.197Z,81.30
2019-05-30T10:41:15.073Z,81.70
2019-05-30T10:43:49.069Z,80.30
2019-05-30T10:46:21.689Z,78.40
2019-05-30T10:49:34.821Z,77.90
2019-05-30T10:51:59.558Z,75.60
2019-05-30T10:54:29.285Z,73.90
2019-05-30T10:57:06.918Z,74.40
2019-05-30T10:59:36.024Z,77.00
2019-05-30T11:02:05.057Z,77.70
2019-05-30T11:04:39.493Z,78.00
2019-05-30T11:08:01.255Z,77.40
2019-05-30T11:10:43.143Z,79.30
2019-05-30T11:13:15.735Z,78.70
2019-05-30T11:16:40.218Z,79.80
2019-05-30T11:22:47.888Z,77.10
2019-05-30T11:25:19.869Z,74.30
2019-05-30T11:27:56.864Z,80.30
2019-05-30T11:30:50.600Z,79.80
2019-05-30T11:33:19.671Z,78.30
2019-05-30T11:36:14.904Z,77.80
2019-05-30T11:42:31.488Z,79.30
2019-05-30T11:45:04.822Z,78.20
2019-05-30T11:47:46.981Z,76.80
2019-05-30T11:50:25.661Z,76.60
2019-05-30T11:53:39.982Z,76.00
2019-05-30T11:56:31.459Z,76.50
2019-05-30T11:59:56.157Z,77.10
2019-05-30T12:02:48.655Z,80.60
2019-05-30T12:10:03.413Z,82.90
2019-05-30T12:11:51.169Z,85.30
2019-05-30T12:14:49.367Z,86.30
2019-05-30T12:18:14.618Z,84.80
2019-05-30T12:26:39.944Z,82.70
2019-05-30T12:29:52.072Z,81.50
2019-05-30T12:32:31.605Z,82.00
2019-05-30T12:35:05.581Z,80.20
2019-05-30T12:37:34.358Z,78.50
2019-05-30T12:40:09.144Z,77.00
2019-05-30T12:43:24.379Z,77.10
2019-05-30T12:45:59.151Z,77.90
2019-05-30T12:48:33.093Z,81.30
2019-05-30T12:51:05.571Z,80.20
2019-05-30T12:53:49.968Z,80.30
2019-05-30T12:56:18.632Z,78.70
2019-05-30T12:58:54.571Z,77.90
2019-05-30T13:01:29.844Z,80.50
2019-05-30T13:04:01.097Z,77.40
2019-05-30T13:06:33.139Z,75.40
2019-05-30T13:09:06.066Z,74.10
2019-05-30T13:11:39.400Z,75.10
2019-05-30T13:14:20.684Z,74.60
2019-05-30T13:16:50.633Z,76.00
2019-05-30T13:19:27.274Z,76.30
2019-05-30T13:21:59.713Z,76.10
2019-05-30T13:24:40.236Z,75.70
2019-05-30T13:28:06.641Z,73.70
2019-05-30T13:30:36.270Z,75.10
2019-05-30T13:34:04.846Z,76.20
2019-05-30T13:36:48.638Z,75.80
2019-05-30T13:39:29.764Z,75.20
2019-05-30T13:42:05.975Z,75.70
2019-05-30T13:44:47.926Z,73.60
2019-05-30T13:47:32.048Z,74.00
2019-05-30T13:50:26.581Z,73.70
2019-05-30T13:53:19.422Z,71.50
2019-05-30T13:55:49.823Z,70.70
2019-05-30T14:02:12.938Z,72.30
2019-05-30T14:04:45.815Z,72.60
2019-05-30T14:07:24.642Z,74.50
2019-05-30T14:10:06.397Z,75.40
2019-05-30T14:13:06.746Z,73.50
2019-05-30T14:15:55.832Z,75.20
2019-05-30T14:27:54.015Z,73.40
2019-05-30T14:30:59.085Z,73.30
2019-05-30T14:36:34.783Z,73.00
2019-05-30T14:43:34.782Z,74.70
2019-05-30T17:38:22.346Z,76.40
2019-05-30T18:10:20.730Z,77.50
2019-05-30T18:18:37.075Z,77.20
2019-05-30T19:18:20.893Z,82.20
2019-05-30T19:21:07.689Z,82.50
2019-05-30T19:23:42.074Z,83.30
2019-05-30T19:26:12.876Z,84.10
2019-05-30T19:28:41.812Z,83.80
2019-05-30T19:31:12.710Z,83.40
2019-05-30T19:34:05.900Z,82.70
2019-05-30T19:36:58.375Z,82.60
2019-05-30T19:39:31.356Z,82.90
2019-05-30T19:42:04.104Z,82.60
2019-05-30T19:44:42.743Z,83.00
2019-05-30T19:47:18.872Z,82.40
2019-05-30T19:49:50.197Z,82.60
2019-05-30T19:52:24.927Z,83.40
2019-05-30T19:55:02.237Z,82.00
2019-05-30T19:57:31.529Z,82.40
2019-05-30T20:02:58.253Z,82.70
2019-05-30T20:05:34.560Z,82.60
2019-05-30T20:08:04.796Z,82.50
2019-05-30T20:10:33.649Z,82.80
2019-05-30T20:13:42.084Z,82.60
2019-05-30T20:16:15.549Z,82.90
2019-05-30T20:18:45.940Z,82.60
2019-05-30T20:21:18.868Z,83.30
2019-05-30T20:23:55.316Z,83.40
2019-05-30T20:26:19.037Z,83.90
2019-05-30T20:28:47.849Z,84.00
2019-05-30T20:31:16.556Z,84.30
2019-05-30T20:33:46.914Z,85.70
2019-05-30T20:36:16.026Z,85.50
2019-05-30T20:38:46.916Z,85.90
2019-05-30T20:41:16.516Z,86.20
2019-05-30T20:43:45.227Z,85.50
2019-05-30T20:46:23.113Z,86.40
2019-05-30T20:48:47.741Z,85.90
2019-05-30T20:51:21.408Z,86.40
2019-05-30T20:53:47.684Z,87.20
2019-05-30T20:56:19.162Z,86.50
2019-05-30T20:58:47.922Z,86.00
2019-05-30T21:01:16.674Z,86.40
2019-05-30T21:03:45.908Z,86.60
2019-05-30T21:06:14.842Z,86.90
2019-05-30T21:08:43.854Z,86.70
2019-05-30T21:11:12.961Z,87.00
2019-05-30T21:13:42.296Z,87.60
2019-05-30T21:16:13.390Z,86.80
2019-05-30T21:18:46.746Z,86.20
2019-05-30T21:21:15.562Z,86.20
2019-05-30T21:23:44.474Z,85.80
2019-05-30T21:26:13.220Z,85.30
2019-05-30T21:28:43.591Z,85.40
2019-05-30T21:31:12.372Z,85.20
2019-05-30T21:33:41.953Z,85.50
2019-05-30T21:36:11.154Z,85.30
2019-05-30T21:38:39.978Z,85.40
2019-05-30T21:41:09.461Z,84.70
2019-05-30T21:43:38.369Z,85.20
2019-05-30T21:46:08.990Z,85.40
2019-05-30T21:48:38.746Z,84.40
2019-05-30T21:51:08.466Z,85.40
2019-05-30T21:53:37.119Z,85.10
2019-05-30T21:56:05.765Z,84.60
2019-05-30T21:58:34.390Z,84.20
2019-05-30T22:01:21.425Z,83.90
2019-05-30T22:03:53.385Z,84.10
2019-05-30T22:06:22.341Z,84.00
2019-05-30T22:08:51.558Z,84.20
2019-05-30T22:11:20.923Z,84.70
2019-05-30T22:13:49.693Z,84.40
2019-05-30T22:16:19.605Z,84.70
2019-05-30T22:18:50.571Z,85.40
2019-05-30T22:21:19.323Z,86.10
2019-05-30T22:23:48.208Z,85.80
2019-05-30T22:26:17.026Z,85.50
2019-05-30T22:28:46.298Z,86.40
2019-05-30T22:31:14.969Z,86.10
2019-05-30T22:33:44.672Z,86.00
2019-05-30T22:36:13.586Z,86.70
2019-05-30T22:38:42.747Z,87.30
2019-05-30T22:41:13.507Z,86.50
2019-05-30T22:43:46.258Z,86.80
2019-05-30T22:46:16.911Z,87.10
2019-05-30T22:48:48.348Z,88.10
2019-05-30T22:51:17.001Z,87.20
2019-05-30T22:53:46.962Z,87.10
2019-05-30T22:56:15.680Z,87.30
2019-05-30T22:58:45.494Z,87.60
2019-05-30T23:01:15.113Z,87.10
2019-05-30T23:03:44.965Z,87.30
2019-05-30T23:06:13.816Z,87.40
2019-05-30T23:08:42.746Z,87.60
2019-05-30T23:11:12.369Z,88.70
2019-05-30T23:13:41.078Z,89.10
2019-05-30T23:16:14.503Z,89.30
2019-05-30T23:18:43.273Z,89.10
2019-05-30T23:21:12.000Z,89.10
2019-05-30T23:23:40.671Z,88.90
2019-05-30T23:26:09.527Z,89.30
2019-05-30T23:28:38.200Z,88.80
2019-05-30T23:31:06.819Z,88.90
2019-05-30T23:33:35.595Z,89.20
2019-05-30T23:36:04.345Z,89.30
2019-05-30T23:38:33.474Z,89.30
2019-05-30T23:41:03.130Z,90.00
2019-05-30T23:43:31.725Z,90.20
2019-05-30T23:46:03.118Z,90.10
2019-05-30T23:48:31.822Z,90.20
2019-05-30T23:51:00.505Z,90.40
2019-05-30T23:53:30.127Z,90.50
2019-05-30T23:55:59.040Z,90.30
2019-05-30T23:58:27.812Z,90.30
